sensor_id;sensor_type;location;lat;lon;timestamp;pressure;altitude;pressure_sealevel;temperature;humidity
5917;BME280;2984;42.656;23.300;2022-07-04T16:44:15;94465.47;;;28.00;45.80
5917;BME280;2984;42.656;23.300;2022-07-04T16:46:54;94369.75;;;27.13;45.84
5917;BME280;2984;42.656;23.300;2022-07-04T16:57:21;94488.22;;;27.54;47.77
5917;BME280;2984;42.656;23.300;2022-07-04T16:59:53;94383.88;;;26.61;47.75
5917;BME280;2984;42.656;23.300;2022-07-04T17:10:10;94480.63;;;27.21;48.03
5917;BME280;2984;42.656;23.300;2022-07-04T17:12:54;94344.03;;;26.13;48.74
5917;BME280;2984;42.656;23.300;2022-07-04T17:15:26;94379.78;;;26.31;47.97
5917;BME280;2984;42.656;23.300;2022-07-04T17:17:55;94449.03;;;26.88;48.11
5917;BME280;2984;42.656;23.300;2022-07-04T17:20:24;94351.00;;;26.00;48.21
5917;BME280;2984;42.656;23.300;2022-07-04T17:22:53;94280.31;;;25.41;48.10
5917;BME280;2984;42.656;23.300;2022-07-04T17:25:22;94310.16;;;25.60;48.50
5917;BME280;2984;42.656;23.300;2022-07-04T17:28:10;94366.66;;;25.86;47.76
5917;BME280;2984;42.656;23.300;2022-07-04T17:30:42;94499.03;;;26.93;48.06
5917;BME280;2984;42.656;23.300;2022-07-04T17:33:14;94313.25;;;25.54;47.78
5917;BME280;2984;42.656;23.300;2022-07-04T17:35:44;94320.25;;;25.38;48.73
5917;BME280;2984;42.656;23.300;2022-07-04T17:38:16;94322.31;;;25.42;48.50
5917;BME280;2984;42.656;23.300;2022-07-04T17:40:45;94241.34;;;24.86;48.49
5917;BME280;2984;42.656;23.300;2022-07-04T17:43:35;94445.59;;;26.13;48.63
5917;BME280;2984;42.656;23.300;2022-07-04T17:46:07;94290.22;;;25.00;49.09
5917;BME280;2984;42.656;23.300;2022-07-04T17:48:36;94439.47;;;26.01;48.25
5917;BME280;2984;42.656;23.300;2022-07-04T17:51:05;94420.56;;;26.02;48.24
5917;BME280;2984;42.656;23.300;2022-07-04T17:53:34;94491.31;;;26.38;48.23
5917;BME280;2984;42.656;23.300;2022-07-04T17:56:08;94405.34;;;25.78;48.46
5917;BME280;2984;42.656;23.300;2022-07-04T17:58:37;94382.25;;;25.49;48.20
5917;BME280;2984;42.656;23.300;2022-07-04T18:01:15;94239.00;;;24.41;48.46
5917;BME280;2984;42.656;23.300;2022-07-04T18:03:44;94379.75;;;25.35;47.99
5917;BME280;2984;42.656;23.300;2022-07-04T18:06:14;94428.91;;;25.66;48.34
5917;BME280;2984;42.656;23.300;2022-07-04T18:08:43;94413.88;;;25.58;48.85
5917;BME280;2984;42.656;23.300;2022-07-04T18:11:12;94387.53;;;25.16;49.86
5917;BME280;2984;42.656;23.300;2022-07-04T18:13:51;94506.91;;;25.76;50.37
5917;BME280;2984;42.656;23.300;2022-07-04T18:16:27;94453.69;;;25.34;50.53
5917;BME280;2984;42.656;23.300;2022-07-04T18:18:57;94503.88;;;25.56;50.73
5917;BME280;2984;42.656;23.300;2022-07-04T18:21:26;94392.50;;;24.93;50.11
5917;BME280;2984;42.656;23.300;2022-07-04T18:23:55;94404.41;;;24.80;50.06
5917;BME280;2984;42.656;23.300;2022-07-04T18:26:24;94511.25;;;25.50;49.98
5917;BME280;2984;42.656;23.300;2022-07-04T18:36:28;94266.16;;;23.67;48.73
5917;BME280;2984;42.656;23.300;2022-07-04T18:38:57;94433.75;;;24.95;47.43
5917;BME280;2984;42.656;23.300;2022-07-04T18:41:30;94408.03;;;24.81;47.76
5917;BME280;2984;42.656;23.300;2022-07-04T18:44:11;94342.13;;;24.26;48.25
5917;BME280;2984;42.656;23.300;2022-07-04T18:46:40;94410.63;;;24.64;48.27
5917;BME280;2984;42.656;23.300;2022-07-04T18:49:09;94383.53;;;24.47;48.57
5917;BME280;2984;42.656;23.300;2022-07-04T18:51:41;94373.09;;;24.31;48.68
5917;BME280;2984;42.656;23.300;2022-07-04T18:54:10;94384.56;;;24.35;48.04
5917;BME280;2984;42.656;23.300;2022-07-04T18:56:38;94475.50;;;25.04;47.82
5917;BME280;2984;42.656;23.300;2022-07-04T18:59:12;94533.63;;;25.54;47.81
5917;BME280;2984;42.656;23.300;2022-07-04T19:01:44;94281.47;;;23.62;47.92
5917;BME280;2984;42.656;23.300;2022-07-04T19:07:04;94538.72;;;25.54;47.81
5917;BME280;2984;42.656;23.300;2022-07-04T19:17:35;94398.44;;;23.67;49.50
5917;BME280;2984;42.656;23.300;2022-07-04T19:20:06;94403.66;;;23.60;49.67
5917;BME280;2984;42.656;23.300;2022-07-04T19:33:13;94464.03;;;23.77;51.25
5917;BME280;2984;42.656;23.300;2022-07-04T19:35:42;94517.22;;;24.25;50.15
5917;BME280;2984;42.656;23.300;2022-07-04T19:38:11;94329.97;;;22.89;50.19
5917;BME280;2984;42.656;23.300;2022-07-04T19:40:40;94532.88;;;24.36;49.98
5917;BME280;2984;42.656;23.300;2022-07-04T19:43:09;94442.88;;;23.84;48.09
5917;BME280;2984;42.656;23.300;2022-07-04T19:45:38;94505.97;;;24.43;47.83
5917;BME280;2984;42.656;23.300;2022-07-04T19:48:07;94406.28;;;23.72;47.72
5917;BME280;2984;42.656;23.300;2022-07-04T19:50:41;94504.94;;;24.55;47.49
5917;BME280;2984;42.656;23.300;2022-07-04T19:53:10;94437.84;;;23.83;48.22
5917;BME280;2984;42.656;23.300;2022-07-04T19:55:40;94511.19;;;24.35;47.90
5917;BME280;2984;42.656;23.300;2022-07-04T19:58:09;94508.41;;;24.31;48.58
5917;BME280;2984;42.656;23.300;2022-07-04T20:00:39;94498.66;;;24.14;48.68
5917;BME280;2984;42.656;23.300;2022-07-04T20:03:08;94500.09;;;24.13;48.05
5917;BME280;2984;42.656;23.300;2022-07-04T20:05:40;94550.97;;;24.36;48.41
5917;BME280;2984;42.656;23.300;2022-07-04T20:08:08;94532.38;;;24.27;48.58
5917;BME280;2984;42.656;23.300;2022-07-04T20:10:39;94554.53;;;24.39;49.10
5917;BME280;2984;42.656;23.300;2022-07-04T20:13:08;94495.59;;;23.87;48.91
5917;BME280;2984;42.656;23.300;2022-07-04T20:15:37;94549.56;;;24.00;49.97
5917;BME280;2984;42.656;23.300;2022-07-04T20:18:07;94551.81;;;23.96;50.31
5917;BME280;2984;42.656;23.300;2022-07-04T20:20:40;94543.50;;;24.13;52.30
5917;BME280;2984;42.656;23.300;2022-07-04T20:23:08;94559.72;;;24.65;50.37
5917;BME280;2984;42.656;23.300;2022-07-04T20:25:37;94567.16;;;25.18;49.56
5917;BME280;2984;42.656;23.300;2022-07-04T20:28:06;94575.13;;;25.46;49.45
5917;BME280;2984;42.656;23.300;2022-07-04T20:30:37;94521.31;;;24.67;48.07
5917;BME280;2984;42.656;23.300;2022-07-04T20:33:06;94509.34;;;24.19;49.62
5917;BME280;2984;42.656;23.300;2022-07-04T20:35:35;94565.75;;;24.20;50.02
5917;BME280;2984;42.656;23.300;2022-07-04T20:38:06;94508.22;;;23.34;50.31
5917;BME280;2984;42.656;23.300;2022-07-04T20:40:35;94544.31;;;23.35;51.42
5917;BME280;2984;42.656;23.300;2022-07-04T20:43:04;94534.25;;;23.32;51.57
5917;BME280;2984;42.656;23.300;2022-07-04T20:45:33;94573.88;;;23.37;52.47
5917;BME280;2984;42.656;23.300;2022-07-04T20:48:04;94553.97;;;23.19;52.10
5917;BME280;2984;42.656;23.300;2022-07-04T20:50:34;94571.63;;;23.01;53.21
5917;BME280;2984;42.656;23.300;2022-07-04T20:53:06;94560.59;;;22.66;54.15
5917;BME280;2984;42.656;23.300;2022-07-04T20:55:35;94557.06;;;22.62;54.32
5917;BME280;2984;42.656;23.300;2022-07-04T20:58:04;94565.53;;;22.76;54.36
5917;BME280;2984;42.656;23.300;2022-07-04T21:00:34;94525.22;;;22.68;54.82
5917;BME280;2984;42.656;23.300;2022-07-04T21:03:03;94577.88;;;23.57;55.47
5917;BME280;2984;42.656;23.300;2022-07-04T21:05:32;94568.63;;;23.87;53.93
5917;BME280;2984;42.656;23.300;2022-07-04T21:08:01;94556.00;;;24.03;51.90
5917;BME280;2984;42.656;23.300;2022-07-04T21:10:32;94579.03;;;24.09;50.61
5917;BME280;2984;42.656;23.300;2022-07-04T21:13:01;94575.44;;;24.43;52.38
5917;BME280;2984;42.656;23.300;2022-07-04T21:15:30;94556.31;;;24.24;50.61
5917;BME280;2984;42.656;23.300;2022-07-04T21:17:58;94591.78;;;24.57;49.98
5917;BME280;2984;42.656;23.300;2022-07-04T21:20:27;94592.44;;;24.27;50.98
5917;BME280;2984;42.656;23.300;2022-07-04T21:22:56;94516.16;;;23.72;50.18
5917;BME280;2984;42.656;23.300;2022-07-04T21:25:25;94570.63;;;24.32;52.24
5917;BME280;2984;42.656;23.300;2022-07-04T21:27:56;94555.63;;;23.86;50.87
5917;BME280;2984;42.656;23.300;2022-07-04T21:30:25;94585.44;;;24.14;53.53
5917;BME280;2984;42.656;23.300;2022-07-04T21:32:54;94603.22;;;24.30;53.88
5917;BME280;2984;42.656;23.300;2022-07-04T21:35:23;94580.28;;;24.18;50.36
5917;BME280;2984;42.656;23.300;2022-07-04T21:37:52;94599.38;;;24.40;53.17
5917;BME280;2984;42.656;23.300;2022-07-04T21:40:21;94586.84;;;24.17;49.76
5917;BME280;2984;42.656;23.300;2022-07-04T21:42:50;94587.72;;;23.72;49.35
5917;BME280;2984;42.656;23.300;2022-07-04T21:45:22;94606.59;;;23.67;48.69
5917;BME280;2984;42.656;23.300;2022-07-04T21:47:51;94580.97;;;23.45;51.31
5917;BME280;2984;42.656;23.300;2022-07-04T21:50:20;94598.75;;;23.63;52.04
5917;BME280;2984;42.656;23.300;2022-07-04T21:52:49;94604.16;;;23.40;51.78
5917;BME280;2984;42.656;23.300;2022-07-04T21:55:18;94552.50;;;22.28;49.61
5917;BME280;2984;42.656;23.300;2022-07-04T21:57:46;94551.59;;;21.86;51.44
5917;BME280;2984;42.656;23.300;2022-07-04T22:00:15;94593.91;;;22.06;51.83
5917;BME280;2984;42.656;23.300;2022-07-04T22:02:47;94576.31;;;21.69;51.97
5917;BME280;2984;42.656;23.300;2022-07-04T22:05:15;94582.09;;;21.65;51.95
5917;BME280;2984;42.656;23.300;2022-07-04T22:07:44;94532.16;;;21.21;50.32
5917;BME280;2984;42.656;23.300;2022-07-04T22:10:13;94578.53;;;21.62;50.43
5917;BME280;2984;42.656;23.300;2022-07-04T22:12:42;94596.91;;;21.94;49.21
5917;BME280;2984;42.656;23.300;2022-07-04T22:15:10;94601.22;;;21.99;47.72
5917;BME280;2984;42.656;23.300;2022-07-04T22:17:39;94534.16;;;21.35;48.72
5917;BME280;2984;42.656;23.300;2022-07-04T22:20:12;94520.59;;;21.25;48.34
5917;BME280;2984;42.656;23.300;2022-07-04T22:22:40;94466.84;;;21.02;47.53
5917;BME280;2984;42.656;23.300;2022-07-04T22:25:09;94545.34;;;21.66;47.03
5917;BME280;2984;42.656;23.300;2022-07-04T22:27:39;94620.22;;;22.35;49.29
5917;BME280;2984;42.656;23.300;2022-07-04T22:30:08;94576.00;;;21.93;46.60
5917;BME280;2984;42.656;23.300;2022-07-04T22:32:37;94579.88;;;21.72;46.66
5917;BME280;2984;42.656;23.300;2022-07-04T22:35:08;94594.25;;;21.74;46.32
5917;BME280;2984;42.656;23.300;2022-07-04T22:37:39;94621.63;;;21.75;46.68
5917;BME280;2984;42.656;23.300;2022-07-04T22:40:08;94628.06;;;21.81;47.12
5917;BME280;2984;42.656;23.300;2022-07-04T22:42:37;94633.69;;;21.93;46.12
5917;BME280;2984;42.656;23.300;2022-07-04T22:45:06;94582.94;;;21.57;45.30
5917;BME280;2984;42.656;23.300;2022-07-04T22:47:36;94638.84;;;21.85;45.99
5917;BME280;2984;42.656;23.300;2022-07-04T22:50:06;94636.53;;;22.00;46.29
5917;BME280;2984;42.656;23.300;2022-07-04T22:52:35;94595.25;;;21.50;45.20
5917;BME280;2984;42.656;23.300;2022-07-04T22:55:09;94619.66;;;21.59;45.71
5917;BME280;2984;42.656;23.300;2022-07-04T22:57:36;94637.53;;;21.72;46.26
5917;BME280;2984;42.656;23.300;2022-07-04T23:00:08;94602.44;;;21.51;45.67
5917;BME280;2984;42.656;23.300;2022-07-04T23:02:38;94632.22;;;21.96;52.64
5917;BME280;2984;42.656;23.300;2022-07-04T23:05:10;94541.88;;;21.55;48.09
5917;BME280;2984;42.656;23.300;2022-07-04T23:07:39;94555.28;;;22.36;52.12
5917;BME280;2984;42.656;23.300;2022-07-04T23:10:11;94639.75;;;23.29;51.94
5917;BME280;2984;42.656;23.300;2022-07-04T23:12:41;94588.84;;;23.07;49.80
5917;BME280;2984;42.656;23.300;2022-07-04T23:15:10;94639.94;;;23.64;49.92
5917;BME280;2984;42.656;23.300;2022-07-04T23:17:39;94640.03;;;23.58;50.26
5917;BME280;2984;42.656;23.300;2022-07-04T23:20:08;94605.97;;;23.62;48.76
5917;BME280;2984;42.656;23.300;2022-07-04T23:22:37;94573.09;;;23.41;50.68
5917;BME280;2984;42.656;23.300;2022-07-04T23:25:07;94633.34;;;23.24;46.65
5917;BME280;2984;42.656;23.300;2022-07-04T23:27:38;94636.59;;;21.91;49.10
5917;BME280;2984;42.656;23.300;2022-07-04T23:30:08;94591.88;;;21.92;51.62
5917;BME280;2984;42.656;23.300;2022-07-04T23:32:36;94609.59;;;22.19;49.27
5917;BME280;2984;42.656;23.300;2022-07-04T23:35:06;94636.84;;;22.32;53.50
5917;BME280;2984;42.656;23.300;2022-07-04T23:37:35;94628.28;;;22.24;50.50
5917;BME280;2984;42.656;23.300;2022-07-04T23:40:06;94591.38;;;22.33;50.21
5917;BME280;2984;42.656;23.300;2022-07-04T23:42:35;94528.09;;;22.21;52.98
5917;BME280;2984;42.656;23.300;2022-07-04T23:45:08;94612.44;;;22.23;50.68
5917;BME280;2984;42.656;23.300;2022-07-04T23:47:37;94622.31;;;21.77;53.33
5917;BME280;2984;42.656;23.300;2022-07-04T23:50:07;94520.59;;;21.25;53.38
5917;BME280;2984;42.656;23.300;2022-07-04T23:52:36;94619.69;;;22.20;53.08
5917;BME280;2984;42.656;23.300;2022-07-04T23:55:06;94619.31;;;22.49;55.69
5917;BME280;2984;42.656;23.300;2022-07-04T23:57:35;94615.13;;;22.40;54.10
